Time;durP1;ratioP1;P1;durP2;ratioP2;P2;SDS_P1;SDS_P2;PMS_P1;PMS_P2;Temp;Humidity;BMP_temperature;BMP_pressure;BME280_temperature;BME280_humidity;BME280_pressure;Samples;Min_cycle;Max_cycle;Signal;HPM_P1;HPM_P2
2022/03/02 04:57:26;;;;;;;14.85;7.15;;;;;;;2.00;43.85;101342.69;5605588;31;80999;-54
2022/03/02 05:00:32;;;;;;;13.10;7.85;;;;;;;2.00;43.85;101342.69;5590529;31;34074;-55
2022/03/02 05:03:34;;;;;;;15.35;8.27;;;;;;;1.56;44.54;101339.50;5602938;31;33637;-53
2022/03/02 05:06:36;;;;;;;15.50;7.82;;;;;;;1.56;44.60;101338.69;5603424;31;33747;-53
2022/03/02 05:09:39;;;;;;;13.57;7.32;;;;;;;1.76;44.05;101329.00;5603739;31;33565;-54
2022/03/02 05:12:41;;;;;;;12.55;7.50;;;;;;;1.75;44.87;101329.19;5602340;31;33662;-54
2022/03/02 05:15:43;;;;;;;13.38;8.00;;;;;;;1.88;45.01;101331.84;5601821;31;33516;-54
2022/03/02 05:18:46;;;;;;;14.48;8.18;;;;;;;1.78;44.66;101326.94;5603383;31;33187;-54
2022/03/02 05:21:48;;;;;;;13.38;7.82;;;;;;;1.88;44.12;101331.84;5593616;31;33560;-54
2022/03/02 05:24:50;;;;;;;14.05;7.97;;;;;;;1.76;45.17;101333.47;5592645;31;33516;-54
2022/03/02 05:27:53;;;;;;;17.67;8.57;;;;;;;1.58;44.70;101342.72;5590591;31;33529;-54
2022/03/02 05:30:55;;;;;;;16.83;8.18;;;;;;;1.60;44.88;101343.38;5583030;31;33652;-54
2022/03/02 05:33:58;;;;;;;14.57;7.93;;;;;;;1.62;44.40;101338.72;5584247;31;34009;-54
2022/03/02 05:37:01;;;;;;;15.43;8.75;;;;;;;1.62;44.37;101332.59;5583452;31;33775;-54
2022/03/02 05:40:04;;;;;;;15.93;8.73;;;;;;;1.57;44.83;101327.09;5583301;31;33695;-55
2022/03/02 05:43:06;;;;;;;15.98;8.02;;;;;;;1.60;45.50;101329.34;5583392;31;33669;-53
2022/03/02 05:46:09;;;;;;;14.73;8.35;;;;;;;1.71;44.78;101335.88;5583655;31;33703;-54
2022/03/02 05:49:13;;;;;;;13.98;8.05;;;;;;;1.62;45.04;101328.13;5592016;31;34344;-54
2022/03/02 05:52:15;;;;;;;15.27;9.25;;;;;;;1.62;45.35;101332.59;5596634;31;33335;-53
2022/03/02 05:55:17;;;;;;;15.48;9.32;;;;;;;1.72;44.62;101333.03;5588980;31;34234;-54
2022/03/02 05:58:19;;;;;;;14.63;8.25;;;;;;;1.80;44.61;101326.75;5575668;31;33701;-54
2022/03/02 06:01:22;;;;;;;17.10;8.55;;;;;;;1.92;44.23;101332.28;5581911;31;33679;-54
2022/03/02 06:04:24;;;;;;;12.30;8.15;;;;;;;1.88;45.04;101331.84;5580061;32;33837;-54
2022/03/02 06:07:27;;;;;;;17.17;8.55;;;;;;;1.90;44.66;101329.03;5560774;32;33641;-54
2022/03/02 06:10:29;;;;;;;15.18;8.55;;;;;;;2.04;44.78;101333.34;5567502;32;33698;-54
2022/03/02 06:13:32;;;;;;;16.02;8.77;;;;;;;2.10;44.66;101322.75;5569787;32;33662;-54
2022/03/02 06:16:34;;;;;;;13.15;7.90;;;;;;;2.04;44.37;101334.13;5569693;32;33257;-54
2022/03/02 06:19:37;;;;;;;15.32;8.60;;;;;;;2.08;44.47;101330.06;5564396;32;33736;-54
2022/03/02 06:22:40;;;;;;;15.07;8.15;;;;;;;2.04;44.11;101328.84;5557900;32;34291;-54
2022/03/02 06:25:42;;;;;;;15.70;8.55;;;;;;;2.20;44.50;101330.31;5569689;32;32380;-54
2022/03/02 06:28:45;;;;;;;14.50;8.57;;;;;;;2.36;43.81;101331.75;5569727;32;34291;-54
2022/03/02 06:31:48;;;;;;;17.17;8.95;;;;;;;2.54;43.74;101339.09;5563945;32;33413;-54
2022/03/02 06:34:51;;;;;;;14.25;9.45;;;;;;;2.52;44.39;101338.50;5550361;32;34245;-54
2022/03/02 06:37:53;;;;;;;18.17;9.70;;;;;;;2.50;44.64;101345.81;5559138;32;34260;-55
2022/03/02 06:41:00;;;;;;;18.27;9.48;;;;;;;2.52;44.48;101333.19;5564616;32;34430;-54
2022/03/02 06:44:04;;;;;;;16.27;9.45;;;;;;;2.61;43.94;101342.53;5568906;32;33621;-53
2022/03/02 06:47:11;;;;;;;18.55;9.20;;;;;;;2.72;44.59;101336.66;5569539;32;32034;-54
2022/03/02 06:50:20;;;;;;;18.73;9.15;;;;;;;2.69;44.15;101334.41;5568735;32;33568;-54
2022/03/02 06:53:31;;;;;;;20.12;9.55;;;;;;;2.64;44.63;101336.84;5565681;32;33423;-54
2022/03/02 06:56:44;;;;;;;17.42;9.68;;;;;;;2.85;44.12;101332.34;5568944;32;34420;-54
2022/03/02 06:59:52;;;;;;;16.92;9.27;;;;;;;3.01;44.23;101332.75;5553700;32;33676;-54
2022/03/02 07:03:02;;;;;;;21.20;10.48;;;;;;;3.17;43.31;101323.53;5557409;32;33671;-54
2022/03/02 07:06:05;;;;;;;14.90;8.73;;;;;;;3.33;43.49;101318.81;5549906;32;33646;-54
2022/03/02 07:09:08;;;;;;;18.62;9.23;;;;;;;3.46;41.64;101313.47;5561055;32;34621;-54
2022/03/02 07:12:11;;;;;;;15.48;8.95;;;;;;;3.59;41.57;101312.59;5568601;32;33653;-54
2022/03/02 07:15:14;;;;;;;18.83;9.70;;;;;;;3.72;41.41;101310.69;5568374;32;34387;-54
2022/03/02 07:18:17;;;;;;;19.52;9.55;;;;;;;3.81;41.52;101310.44;5567398;32;33717;-55
2022/03/02 07:21:22;;;;;;;16.62;9.40;;;;;;;4.04;41.04;101310.72;5568292;32;34276;-54
2022/03/02 07:24:32;;;;;;;16.85;9.55;;;;;;;4.09;39.98;101312.72;5568355;32;34328;-54
2022/03/02 07:27:38;;;;;;;17.15;9.15;;;;;;;4.21;40.15;101303.06;5569266;32;34559;-54
2022/03/02 07:30:44;;;;;;;18.00;9.60;;;;;;;4.22;40.44;101296.72;5567756;32;33740;-54
2022/03/02 07:33:47;;;;;;;21.40;9.80;;;;;;;4.22;39.98;101294.06;5551113;32;33637;-54
2022/03/02 07:36:52;;;;;;;15.63;9.02;;;;;;;4.28;40.95;101295.88;5548570;32;33735;-54
2022/03/02 07:39:55;;;;;;;18.50;9.13;;;;;;;4.53;40.52;101298.50;5560449;32;33721;-54
2022/03/02 07:42:58;;;;;;;14.52;8.57;;;;;;;4.76;39.01;101289.12;5566614;32;33757;-54
2022/03/02 07:46:01;;;;;;;16.80;9.13;;;;;;;4.87;38.90;101283.09;5568332;32;33605;-54
2022/03/02 07:49:04;;;;;;;12.82;7.50;;;;;;;4.86;39.10;101284.09;5563606;32;34355;-54
2022/03/02 07:52:07;;;;;;;12.77;8.20;;;;;;;5.08;38.18;101273.87;5569099;32;33595;-54
2022/03/02 07:55:10;;;;;;;14.95;7.53;;;;;;;5.26;37.30;101275.72;5568413;32;34358;-54
2022/03/02 07:58:13;;;;;;;13.57;7.60;;;;;;;5.36;37.50;101276.00;5568171;32;33950;-54
2022/03/02 08:01:18;;;;;;;12.50;6.80;;;;;;;5.40;37.67;101269.22;5568521;32;33699;-54
2022/03/02 08:04:23;;;;;;;13.27;7.05;;;;;;;5.33;36.04;101266.63;5569023;32;33581;-55
2022/03/02 08:07:25;;;;;;;12.27;7.03;;;;;;;5.45;36.98;101263.22;5566265;32;34383;-55
2022/03/02 08:10:28;;;;;;;12.10;7.00;;;;;;;5.67;37.02;101256.38;5568485;32;34375;-54
2022/03/02 08:13:33;;;;;;;11.90;7.53;;;;;;;5.63;36.92;101264.00;5565155;32;33813;-55
2022/03/02 08:16:35;;;;;;;15.50;7.95;;;;;;;5.71;37.03;101260.19;5551462;32;33732;-54
2022/03/02 08:19:38;;;;;;;14.27;7.57;;;;;;;5.68;35.68;101257.19;5567515;32;33572;-54
2022/03/02 08:22:48;;;;;;;12.35;6.90;;;;;;;5.84;35.81;101254.69;5568612;32;33563;-55
2022/03/02 08:25:52;;;;;;;11.85;6.70;;;;;;;5.86;36.56;101257.09;5549154;32;33701;-54
2022/03/02 08:28:58;;;;;;;13.43;6.95;;;;;;;5.83;36.48;101250.41;5566406;32;34670;-54
2022/03/02 08:32:03;;;;;;;11.65;7.37;;;;;;;5.93;36.00;101249.88;5546230;32;33716;-55
2022/03/02 08:35:12;;;;;;;12.98;6.93;;;;;;;6.08;36.07;101247.59;5563575;32;33708;-54
2022/03/02 08:38:15;;;;;;;13.48;7.35;;;;;;;6.18;36.71;101241.72;5549075;32;34189;-54
2022/03/02 08:41:19;;;;;;;16.20;6.93;;;;;;;6.30;37.03;101234.56;5563209;32;33404;-54
2022/03/02 08:44:22;;;;;;;11.90;6.45;;;;;;;6.27;35.97;101228.88;5558572;32;34401;-54
2022/03/02 08:47:25;;;;;;;13.38;7.25;;;;;;;6.37;35.77;101234.44;5568669;32;33179;-54
2022/03/02 08:50:29;;;;;;;10.68;6.05;;;;;;;6.39;35.83;101231.53;5565014;32;33808;-54
2022/03/02 08:53:32;;;;;;;12.93;6.35;;;;;;;6.31;36.71;101222.03;5559899;32;33665;-54
2022/03/02 08:56:38;;;;;;;14.38;7.12;;;;;;;6.40;36.60;101225.19;5567423;32;34358;-55
2022/03/02 08:59:41;;;;;;;13.57;6.80;;;;;;;6.40;36.72;101222.53;5567397;32;34210;-54
2022/03/02 09:02:47;;;;;;;11.20;6.05;;;;;;;6.42;36.43;101215.91;5561709;32;33670;-55
2022/03/02 09:05:52;;;;;;;16.50;7.55;;;;;;;6.41;37.20;101224.94;5561459;32;33846;-54
2022/03/02 09:08:57;;;;;;;13.65;6.55;;;;;;;6.40;36.35;101214.53;5562688;32;33652;-54
2022/03/02 09:12:00;;;;;;;11.82;6.50;;;;;;;6.59;36.52;101216.03;5556821;32;34519;-54
2022/03/02 09:15:03;;;;;;;11.85;6.72;;;;;;;6.43;36.94;101206.87;5568118;32;34349;-54
2022/03/02 09:18:07;;;;;;;14.27;7.37;;;;;;;6.55;35.20;101202.34;5565833;32;33255;-54
2022/03/02 09:21:09;;;;;;;13.62;6.78;;;;;;;6.70;36.00;101203.72;5553631;32;33663;-54
2022/03/02 09:24:12;;;;;;;12.20;7.40;;;;;;;6.77;35.20;101199.09;5557383;32;33694;-54
2022/03/02 09:27:17;;;;;;;10.95;6.82;;;;;;;6.97;35.38;101191.50;5551470;32;33672;-54
2022/03/02 09:30:20;;;;;;;12.77;6.55;;;;;;;7.18;34.75;101186.56;5553394;32;33760;-54
2022/03/02 09:33:24;;;;;;;11.75;6.62;;;;;;;7.22;34.25;101193.88;5559384;32;34216;-55
2022/03/02 09:36:34;;;;;;;10.68;6.37;;;;;;;7.25;34.00;101187.22;5555014;32;33952;-55
2022/03/02 09:39:36;;;;;;;13.25;7.62;;;;;;;7.52;30.58;101193.63;5561292;32;33709;-54
2022/03/02 09:42:45;;;;;;;15.68;8.32;;;;;;;7.51;29.86;101183.97;5564871;32;33603;-55
2022/03/02 09:45:52;;;;;;;12.48;6.70;;;;;;;7.54;30.22;101180.84;5552069;32;33613;-54
2022/03/02 09:49:01;;;;;;;10.05;6.50;;;;;;;7.73;29.64;101189.44;5568852;32;33635;-55
2022/03/02 09:52:06;;;;;;;14.23;7.43;;;;;;;7.42;30.09;101171.28;5563590;32;33607;-55
2022/03/02 09:55:12;;;;;;;10.48;6.70;;;;;;;7.24;30.45;101177.62;5562278;32;33566;-55
2022/03/02 09:58:20;;;;;;;13.13;6.35;;;;;;;7.46;29.45;101170.56;5568298;32;33622;-54
2022/03/02 10:01:31;;;;;;;14.50;7.80;;;;;;;7.67;29.61;101168.25;5566871;32;33632;-54
2022/03/02 10:04:35;;;;;;;11.88;6.90;;;;;;;7.75;29.75;101157.19;5562127;32;33642;-54
2022/03/02 10:07:44;;;;;;;13.43;6.68;;;;;;;7.93;29.19;101167.59;5557724;32;33621;-55
2022/03/02 10:10:48;;;;;;;13.65;8.13;;;;;;;7.76;28.89;101159.59;5567501;32;33666;-55
2022/03/02 10:13:55;;;;;;;33.17;7.57;;;;;;;7.70;30.25;101152.56;5552242;32;33732;-55
2022/03/02 10:17:00;;;;;;;13.95;7.22;;;;;;;7.74;30.01;101155.53;5566668;32;34021;-54
2022/03/02 10:20:23;;;;;;;10.15;6.78;;;;;;;7.21;28.03;101154.09;5555316;32;33336;-54
2022/03/02 10:23:36;;;;;;;13.07;7.37;;;;;;;7.14;28.45;101140.91;5554596;32;33272;-54
2022/03/02 10:26:49;;;;;;;15.85;7.18;;;;;;;7.17;28.75;101134.28;5557698;32;34504;-55
2022/03/02 10:30:04;;;;;;;15.15;7.28;;;;;;;7.30;28.63;101131.31;5558217;32;33373;-55
2022/03/02 10:33:20;;;;;;;17.83;7.28;;;;;;;7.30;28.86;101139.34;5566419;32;34595;-55
2022/03/02 10:36:29;;;;;;;14.63;7.60;;;;;;;7.40;28.98;101133.38;5568167;32;33666;-54
2022/03/02 10:39:49;;;;;;;14.90;7.07;;;;;;;7.27;29.63;101137.12;5568930;32;34251;-54
2022/03/02 10:42:58;;;;;;;13.60;7.57;;;;;;;7.49;29.20;101126.59;5561002;32;33675;-54
2022/03/02 10:46:01;;;;;;;11.55;6.82;;;;;;;7.63;28.58;101117.22;5558830;32;34292;-54
2022/03/02 10:49:07;;;;;;;11.50;6.90;;;;;;;7.56;29.54;101108.56;5568850;32;33703;-55
2022/03/02 10:52:13;;;;;;;12.40;7.35;;;;;;;7.88;29.01;101106.16;5549584;32;33414;-55
2022/03/02 10:55:16;;;;;;;10.63;7.10;;;;;;;8.10;28.49;101106.19;5564004;32;34921;-55
2022/03/02 10:58:19;;;;;;;11.18;7.07;;;;;;;7.60;27.78;101095.56;5555248;32;33708;-54
2022/03/02 11:01:22;;;;;;;11.70;6.87;;;;;;;7.73;28.41;101084.53;5555826;32;33857;-55
2022/03/02 11:04:28;;;;;;;10.75;6.40;;;;;;;7.53;28.26;101085.84;5565527;32;33280;-54
2022/03/02 11:07:32;;;;;;;11.55;5.87;;;;;;;7.57;28.09;101080.03;5564596;32;34222;-55
2022/03/02 11:10:37;;;;;;;14.10;6.57;;;;;;;7.40;28.63;101070.16;5558135;32;33685;-55
2022/03/02 11:13:41;;;;;;;11.00;6.07;;;;;;;7.36;28.80;101073.56;5567363;32;34066;-54
2022/03/02 11:16:46;;;;;;;11.55;5.53;;;;;;;7.66;28.58;101073.22;5567945;32;33650;-55
2022/03/02 11:19:48;;;;;;;11.43;5.75;;;;;;;7.84;28.72;101070.28;5558140;32;33870;-55
2022/03/02 11:22:55;;;;;;;8.88;5.60;;;;;;;8.14;28.80;101069.09;5565657;32;34257;-54
2022/03/02 11:26:04;;;;;;;;;;;;;;;8.17;28.57;101063.28;5557674;32;33688;-55
2022/03/02 11:29:12;;;;;;;11.27;6.53;;;;;;;8.30;28.03;101059.44;5568055;32;34009;-55
2022/03/02 11:32:15;;;;;;;11.40;6.78;;;;;;;8.35;27.75;101040.81;5556531;32;34362;-54
2022/03/02 11:35:19;;;;;;;10.95;6.97;;;;;;;8.43;27.21;101037.72;5558218;32;34460;-54
2022/03/02 11:38:22;;;;;;;13.62;7.70;;;;;;;8.44;27.80;101029.47;5556573;32;34381;-55
2022/03/02 11:41:33;;;;;;;9.48;6.47;;;;;;;8.50;27.66;101035.66;5554574;32;34268;-55
2022/03/02 11:44:43;;;;;;;16.35;6.70;;;;;;;8.48;27.82;101024.44;5565696;32;33684;-55
2022/03/02 11:47:55;;;;;;;11.23;6.82;;;;;;;8.56;28.15;101018.62;5566561;32;33790;-55
2022/03/02 11:51:23;;;;;;;10.43;6.65;;;;;;;8.66;28.14;101016.06;5549648;32;33905;-55
2022/03/02 11:54:40;;;;;;;11.10;7.05;;;;;;;8.78;28.02;101007.09;5556244;32;33668;-55
2022/03/02 11:57:48;;;;;;;10.75;7.22;;;;;;;8.75;27.87;101007.59;5559709;32;33631;-55
2022/03/02 12:00:50;;;;;;;11.15;7.70;;;;;;;8.69;28.62;101004.88;5559591;32;34307;-55
2022/03/02 12:04:02;;;;;;;13.38;8.30;;;;;;;8.99;28.50;101000.06;5564329;32;34355;-55
2022/03/02 12:07:05;;;;;;;13.57;7.80;;;;;;;9.14;27.42;100998.34;5566936;32;34346;-55
2022/03/02 12:10:15;;;;;;;12.37;7.37;;;;;;;9.02;27.37;100997.69;5560969;32;33598;-55
2022/03/02 12:13:18;;;;;;;14.25;8.32;;;;;;;9.04;28.06;101000.09;5560105;32;34389;-55
2022/03/02 12:16:39;;;;;;;15.30;7.78;;;;;;;8.98;27.83;100993.91;5568579;32;33634;-54
2022/03/02 12:19:44;;;;;;;12.37;8.15;;;;;;;8.79;28.11;100988.12;5568332;32;34393;-54
2022/03/02 12:22:54;;;;;;;11.65;8.00;;;;;;;9.01;28.08;100980.03;5557989;32;33254;-54
2022/03/02 12:25:59;;;;;;;11.75;7.85;;;;;;;8.85;27.76;100979.09;5559776;32;33749;-55
2022/03/02 12:29:01;;;;;;;12.25;8.13;;;;;;;8.96;28.56;100974.62;5562181;32;33242;-55
2022/03/02 12:32:05;;;;;;;13.15;7.72;;;;;;;8.99;27.99;100968.78;5555851;32;33353;-55
2022/03/02 12:35:10;;;;;;;12.82;8.10;;;;;;;9.17;27.49;100970.25;5555457;32;34277;-55
2022/03/02 12:38:13;;;;;;;12.95;6.95;;;;;;;9.32;27.66;100965.00;5555919;32;34497;-56
2022/03/02 12:41:16;;;;;;;12.13;7.87;;;;;;;9.34;27.42;100962.09;5555692;32;34412;-54
2022/03/02 12:44:21;;;;;;;11.38;7.43;;;;;;;9.40;27.40;100964.56;5555233;32;34228;-55
2022/03/02 12:47:30;;;;;;;11.18;7.93;;;;;;;9.33;27.99;100960.47;5557515;32;33876;-54
2022/03/02 12:50:33;;;;;;;12.77;7.22;;;;;;;9.33;28.35;100945.22;5559404;32;33724;-55
2022/03/02 12:53:36;;;;;;;11.23;6.97;;;;;;;9.41;28.69;100949.28;5551065;31;33837;-55
2022/03/02 12:56:38;;;;;;;13.25;7.25;;;;;;;9.36;28.63;100947.38;5557870;32;33294;-54
2022/03/02 12:59:43;;;;;;;15.60;7.55;;;;;;;9.30;28.36;100947.59;5559104;32;34028;-55
2022/03/02 13:02:55;;;;;;;13.35;7.90;;;;;;;9.15;28.56;100938.41;5549788;32;34336;-54
2022/03/02 13:06:03;;;;;;;11.20;7.18;;;;;;;9.38;28.44;100931.87;5552160;32;33277;-55
2022/03/02 13:09:13;;;;;;;15.40;8.80;;;;;;;9.38;29.20;100931.87;5563753;32;34265;-55
2022/03/02 13:12:32;;;;;;;11.73;8.13;;;;;;;9.66;28.54;100919.16;5567985;32;33766;-54
2022/03/02 13:15:38;;;;;;;12.73;8.15;;;;;;;9.69;29.17;100915.97;5567963;32;33709;-54
2022/03/02 13:18:41;;;;;;;17.70;8.37;;;;;;;9.63;28.91;100917.00;5567647;32;33732;-55
2022/03/02 13:21:57;;;;;;;12.75;8.70;;;;;;;9.41;29.41;100912.63;5567434;32;34232;-55
2022/03/02 13:25:08;;;;;;;13.50;8.25;;;;;;;9.50;29.60;100906.78;5570124;32;34029;-55
2022/03/02 13:28:13;;;;;;;10.48;7.62;;;;;;;9.53;29.75;100900.91;5569966;32;33817;-54
2022/03/02 13:31:17;;;;;;;13.43;7.78;;;;;;;9.53;28.65;100890.19;5569975;32;33679;-54
2022/03/02 13:34:21;;;;;;;15.38;8.77;;;;;;;9.65;28.76;100877.41;5568096;32;33750;-55
2022/03/02 13:37:56;;;;;;;10.80;8.30;;;;;;;9.73;28.98;100870.75;5567737;32;33898;-54
2022/03/02 13:40:58;;;;;;;13.75;8.40;;;;;;;9.76;29.34;100875.56;5569832;32;33871;-55
2022/03/02 13:44:37;;;;;;;12.88;8.20;;;;;;;9.79;29.49;100865.16;5569885;32;33281;-55
2022/03/02 13:47:40;;;;;;;11.50;7.65;;;;;;;9.64;29.33;100867.78;5569514;32;33736;-55
2022/03/02 13:50:57;;;;;;;13.18;7.85;;;;;;;9.65;29.59;100864.03;5570004;32;33672;-55
2022/03/02 13:54:02;;;;;;;14.80;7.82;;;;;;;9.75;29.56;100858.72;5569922;32;33606;-55
2022/03/02 13:57:04;;;;;;;15.25;8.48;;;;;;;9.84;28.74;100859.81;5569068;32;33665;-55
2022/03/02 14:00:27;;;;;;;11.05;7.75;;;;;;;9.80;29.26;100849.88;5570196;32;33595;-54
2022/03/02 14:03:32;;;;;;;13.50;8.00;;;;;;;9.79;28.98;100854.44;5569934;32;33734;-55
2022/03/02 14:06:36;;;;;;;14.13;8.15;;;;;;;9.77;29.40;100853.09;5570025;32;34437;-55
2022/03/02 14:09:40;;;;;;;13.80;8.48;;;;;;;9.79;29.17;100853.63;5568983;32;34268;-55
2022/03/02 14:12:57;;;;;;;12.27;8.27;;;;;;;9.85;29.32;100849.91;5568383;32;33671;-54
2022/03/02 14:16:06;;;;;;;13.88;7.95;;;;;;;9.86;28.90;100846.94;5569834;32;33717;-54
2022/03/02 14:19:11;;;;;;;13.13;8.27;;;;;;;9.83;28.71;100836.78;5569036;32;34358;-54
2022/03/02 14:22:18;;;;;;;13.93;8.50;;;;;;;9.83;29.62;100838.66;5569411;32;33619;-55
2022/03/02 14:25:21;;;;;;;21.45;18.20;;;;;;;9.85;29.62;100828.47;5569302;32;34007;-54
2022/03/02 14:28:24;;;;;;;15.27;8.90;;;;;;;10.15;29.17;100816.22;5568236;32;33713;-55
2022/03/02 14:31:26;;;;;;;13.05;9.15;;;;;;;10.31;29.33;100832.06;5569644;32;33681;-54
2022/03/02 14:34:55;;;;;;;14.20;9.18;;;;;;;10.28;28.63;100837.97;5566987;32;33662;-54
2022/03/02 14:38:01;;;;;;;12.93;8.20;;;;;;;10.25;28.79;100827.75;5562519;32;34448;-54
2022/03/02 14:41:03;;;;;;;14.38;7.85;;;;;;;10.34;28.49;100822.69;5552298;32;34393;-55
2022/03/02 14:44:13;;;;;;;13.70;7.87;;;;;;;10.38;27.95;100826.44;5569151;32;33941;-54
2022/03/02 14:47:25;;;;;;;13.85;8.18;;;;;;;10.14;28.08;100836.84;5568942;32;33765;-54
2022/03/02 14:50:46;;;;;;;12.55;7.95;;;;;;;9.83;28.67;100833.28;5567282;32;33236;-54
2022/03/02 14:53:48;;;;;;;11.02;7.75;;;;;;;9.49;28.90;100832.91;5568835;32;34404;-55
2022/03/02 14:56:50;;;;;;;13.40;7.80;;;;;;;9.39;28.99;100825.66;5569237;32;34357;-54
2022/03/02 14:59:53;;;;;;;12.07;8.10;;;;;;;9.48;29.69;100836.66;5568733;32;33789;-54
2022/03/02 15:02:56;;;;;;;13.50;7.93;;;;;;;9.40;29.09;100836.09;5568873;32;33683;-54
2022/03/02 15:06:05;;;;;;;14.30;8.10;;;;;;;9.09;29.77;100834.31;5569137;32;34373;-55
2022/03/02 15:09:09;;;;;;;12.45;7.97;;;;;;;9.22;29.49;100830.37;5560246;32;33618;-55
2022/03/02 15:12:34;;;;;;;16.92;7.95;;;;;;;9.29;29.82;100821.06;5560363;32;33639;-54
2022/03/02 15:15:37;;;;;;;15.80;8.75;;;;;;;9.28;29.33;100827.47;5567891;32;33740;-55
2022/03/02 15:18:59;;;;;;;12.02;7.82;;;;;;;9.29;29.82;100818.38;5568502;32;33723;-55
2022/03/02 15:22:23;;;;;;;14.68;9.70;;;;;;;9.27;29.53;100828.56;5557645;32;33640;-54
2022/03/02 15:25:25;;;;;;;12.77;8.57;;;;;;;9.12;30.11;100817.75;5569370;32;33489;-54
2022/03/02 15:28:27;;;;;;;15.73;9.00;;;;;;;8.99;30.12;100826.25;5568644;32;34259;-54
2022/03/02 15:31:47;;;;;;;14.87;10.00;;;;;;;8.87;30.72;100829.09;5569390;32;34484;-54
2022/03/02 15:35:16;;;;;;;11.88;8.60;;;;;;;8.80;30.75;100815.16;5568892;32;33721;-54
2022/03/02 15:38:20;;;;;;;12.35;8.25;;;;;;;8.93;30.69;100812.03;5563791;32;34439;-54
2022/03/02 15:41:23;;;;;;;20.73;10.00;;;;;;;8.73;30.98;100815.38;5553165;32;33710;-53
2022/03/02 15:44:26;;;;;;;19.10;9.38;;;;;;;8.60;31.04;100811.28;5549815;32;33790;-54
2022/03/02 15:47:35;;;;;;;14.35;9.00;;;;;;;8.73;31.11;100812.72;5549932;32;33435;-54
2022/03/02 15:50:42;;;;;;;17.00;9.73;;;;;;;8.79;31.38;100818.91;5555553;32;33608;-54
2022/03/02 15:53:44;;;;;;;14.38;9.35;;;;;;;8.60;31.33;100819.28;5569137;31;33733;-55
2022/03/02 15:56:54;;;;;;;14.25;9.10;;;;;;;8.49;31.65;100824.81;5549704;32;34369;-54
2022/03/02 16:00:10;;;;;;;13.60;9.02;;;;;;;8.57;31.67;100819.00;5561811;32;34420;-54
2022/03/02 16:03:17;;;;;;;15.05;8.75;;;;;;;8.75;31.24;100815.12;5567301;32;34325;-54
2022/03/02 16:06:20;;;;;;;14.68;9.32;;;;;;;8.77;31.42;100821.81;5556955;32;33801;-54
2022/03/02 16:09:24;;;;;;;14.90;9.60;;;;;;;8.65;31.64;100831.91;5562708;32;34360;-55
2022/03/02 16:12:43;;;;;;;14.68;9.50;;;;;;;8.50;31.86;100824.56;5568437;32;33645;-54
2022/03/02 16:15:51;;;;;;;14.80;10.43;;;;;;;8.61;31.82;100830.78;5562553;32;34519;-54
2022/03/02 16:19:17;;;;;;;16.90;10.02;;;;;;;8.49;31.89;100828.31;5549235;32;33726;-54
2022/03/02 16:22:21;;;;;;;19.08;9.75;;;;;;;8.37;32.23;100830.31;5549553;32;34328;-54
2022/03/02 16:25:25;;;;;;;16.87;10.00;;;;;;;8.26;32.48;100823.28;5549576;32;33714;-55
2022/03/02 16:28:34;;;;;;;18.48;10.45;;;;;;;8.23;32.75;100819.22;5549405;32;33862;-54
2022/03/02 16:31:37;;;;;;;18.87;10.30;;;;;;;8.30;32.59;100819.03;5549472;32;33751;-55
2022/03/02 16:34:39;;;;;;;14.70;10.35;;;;;;;8.44;32.56;100821.06;5548766;32;34383;-54
2022/03/02 16:37:42;;;;;;;15.52;10.60;;;;;;;8.44;32.49;100829.06;5549435;32;33797;-54
2022/03/02 16:40:44;;;;;;;17.37;10.73;;;;;;;8.42;32.75;100820.50;5549292;32;34442;-54
2022/03/02 16:43:46;;;;;;;16.25;10.02;;;;;;;8.29;33.24;100825.44;5549285;32;33670;-54
2022/03/02 16:46:48;;;;;;;18.00;10.43;;;;;;;8.44;32.69;100834.41;5549231;32;33418;-55
